Time;durP1;ratioP1;P1;durP2;ratioP2;P2;SDS_P1;SDS_P2;PMS_P1;PMS_P2;Temp;Humidity;BMP_temperature;BMP_pressure;BME280_temperature;BME280_humidity;BME280_pressure;Samples;Min_cycle;Max_cycle;Signal;HPM_P1;HPM_P2
2023/08/06 00:00:40;;;;;;;11.97;11.17;;;15.30;99.90;;;;;;4974436;28;20196;-76
2023/08/06 00:03:07;;;;;;;11.80;11.00;;;15.20;99.90;;;;;;4985795;28;20216;-76
2023/08/06 00:05:34;;;;;;;11.97;11.17;;;15.20;99.90;;;;;;4978024;28;20200;-76
2023/08/06 00:08:01;;;;;;;11.93;11.13;;;15.20;99.90;;;;;;4973487;28;20583;-76
2023/08/06 00:10:29;;;;;;;11.87;11.07;;;15.20;99.90;;;;;;4988473;28;20267;-77
2023/08/06 00:12:55;;;;;;;12.40;11.60;;;15.10;99.90;;;;;;4989446;28;20203;-76
2023/08/06 00:15:23;;;;;;;12.00;11.20;;;15.10;99.90;;;;;;4992359;28;20196;-76
2023/08/06 00:17:50;;;;;;;11.83;11.03;;;15.10;99.90;;;;;;4978569;28;20205;-76
2023/08/06 00:20:17;;;;;;;11.40;10.70;;;15.00;99.90;;;;;;4981526;28;20262;-76
2023/08/06 00:22:43;;;;;;;11.43;10.63;;;15.00;99.90;;;;;;4984118;28;20219;-76
2023/08/06 00:25:10;;;;;;;11.90;11.10;;;15.00;99.90;;;;;;4982005;28;20207;-76
2023/08/06 00:27:39;;;;;;;11.63;10.93;;;14.90;99.90;;;;;;4979053;28;20676;-76
2023/08/06 00:30:07;;;;;;;11.57;10.87;;;14.90;99.90;;;;;;4991111;28;20280;-76
2023/08/06 00:32:33;;;;;;;11.23;10.53;;;14.90;99.90;;;;;;4973133;28;20594;-76
2023/08/06 00:35:00;;;;;;;11.30;10.60;;;14.80;99.90;;;;;;4988926;28;20209;-75
2023/08/06 00:37:27;;;;;;;11.63;10.73;;;14.80;99.90;;;;;;4985092;28;20197;-76
2023/08/06 00:39:54;;;;;;;11.07;10.17;;;14.70;99.90;;;;;;4972800;28;20226;-76
2023/08/06 00:42:22;;;;;;;11.50;10.70;;;14.80;99.90;;;;;;4981498;28;20224;-76
2023/08/06 00:44:50;;;;;;;11.50;10.80;;;14.80;99.90;;;;;;4986366;28;20199;-76
2023/08/06 00:47:17;;;;;;;12.07;11.27;;;14.70;99.90;;;;;;4976536;28;20208;-76
2023/08/06 00:49:45;;;;;;;12.40;11.60;;;14.70;99.90;;;;;;4972685;28;20218;-76
2023/08/06 00:52:13;;;;;;;11.77;11.03;;;14.70;99.90;;;;;;4983835;28;20211;-76
2023/08/06 00:54:40;;;;;;;11.50;10.80;;;14.60;99.90;;;;;;4978990;28;20195;-76
2023/08/06 00:57:08;;;;;;;11.43;10.73;;;14.50;99.90;;;;;;4987923;28;20574;-76
2023/08/06 00:59:35;;;;;;;11.53;10.73;;;14.60;99.90;;;;;;4972632;28;20220;-76
2023/08/06 01:02:04;;;;;;;10.97;10.27;;;14.50;99.90;;;;;;4972837;28;20213;-77
2023/08/06 01:04:32;;;;;;;11.87;11.07;;;14.50;99.90;;;;;;4982055;28;20206;-76
2023/08/06 01:07:08;;;;;;;11.00;10.30;;;14.40;99.90;;;;;;4988131;28;20210;-76
2023/08/06 01:09:45;;;;;;;11.13;10.33;;;14.40;99.90;;;;;;4987119;28;20238;-76
2023/08/06 01:12:31;;;;;;;10.70;10.00;;;14.40;99.90;;;;;;4988732;28;20204;-76
2023/08/06 01:15:09;;;;;;;10.10;9.50;;;14.30;99.90;;;;;;4972699;28;20211;-76
2023/08/06 01:17:38;;;;;;;10.87;10.17;;;14.30;99.90;;;;;;4977464;28;20194;-76
2023/08/06 01:20:06;;;;;;;10.13;9.53;;;14.30;99.90;;;;;;4975036;28;20227;-76
2023/08/06 01:22:34;;;;;;;10.70;10.00;;;14.20;99.90;;;;;;4980807;28;20288;-76
2023/08/06 01:25:01;;;;;;;9.70;9.10;;;14.20;99.90;;;;;;4972231;28;20204;-76
2023/08/06 01:27:34;;;;;;;10.00;9.30;;;14.20;99.90;;;;;;4984471;28;20256;-76
2023/08/06 01:30:07;;;;;;;9.90;9.30;;;14.10;99.90;;;;;;4987481;28;20233;-76
2023/08/06 01:32:39;;;;;;;10.10;9.40;;;14.10;99.90;;;;;;4982717;28;20214;-76
2023/08/06 01:35:07;;;;;;;9.90;9.30;;;14.00;99.90;;;;;;4988111;28;20621;-75
2023/08/06 01:37:35;;;;;;;9.77;9.17;;;14.00;99.90;;;;;;4983640;28;20201;-76
2023/08/06 01:40:07;;;;;;;10.00;9.30;;;14.00;99.90;;;;;;4978249;28;20336;-76
2023/08/06 01:42:34;;;;;;;9.90;9.30;;;13.90;99.90;;;;;;4979308;28;20211;-76
2023/08/06 01:45:01;;;;;;;10.80;9.97;;;13.80;99.90;;;;;;4972278;28;20207;-76
2023/08/06 01:47:27;;;;;;;10.40;9.70;;;13.80;99.90;;;;;;4972742;28;20199;-76
2023/08/06 01:49:54;;;;;;;10.27;9.67;;;13.80;99.90;;;;;;4979461;28;20218;-76
2023/08/06 01:52:21;;;;;;;10.37;9.67;;;13.70;99.90;;;;;;4989282;28;20210;-76
2023/08/06 01:54:49;;;;;;;10.33;9.63;;;13.60;99.90;;;;;;4991472;28;20241;-76
2023/08/06 01:57:16;;;;;;;10.03;9.43;;;13.50;99.90;;;;;;4991259;28;20199;-76
2023/08/06 01:59:43;;;;;;;10.43;9.73;;;13.50;99.90;;;;;;4994642;28;20222;-76
2023/08/06 02:02:09;;;;;;;10.57;9.80;;;13.40;99.90;;;;;;4971808;28;20194;-76
2023/08/06 02:04:36;;;;;;;10.73;9.90;;;13.40;99.90;;;;;;4980645;28;20217;-76
2023/08/06 02:07:03;;;;;;;11.00;10.10;;;13.40;99.90;;;;;;4984962;28;20275;-76
2023/08/06 02:09:30;;;;;;;10.53;9.83;;;13.40;99.90;;;;;;4984377;28;20230;-76
2023/08/06 02:11:58;;;;;;;11.00;10.30;;;13.30;99.90;;;;;;4999420;28;20198;-76
2023/08/06 02:14:25;;;;;;;10.67;9.97;;;13.30;99.90;;;;;;4977477;28;20665;-76
2023/08/06 02:16:52;;;;;;;10.80;10.10;;;13.30;99.90;;;;;;4982096;28;20626;-76
2023/08/06 02:19:19;;;;;;;10.67;9.97;;;13.20;99.90;;;;;;4976039;28;20225;-76
2023/08/06 02:21:47;;;;;;;10.40;9.63;;;13.20;99.90;;;;;;4984576;28;20194;-76
2023/08/06 02:24:13;;;;;;;10.30;9.60;;;13.10;99.90;;;;;;4975246;28;20603;-76
2023/08/06 02:26:40;;;;;;;10.60;9.70;;;13.10;99.90;;;;;;4975262;28;20210;-76
2023/08/06 02:29:08;;;;;;;10.87;10.17;;;13.10;99.90;;;;;;4984199;28;20696;-76
2023/08/06 02:31:35;;;;;;;10.40;9.70;;;13.10;99.90;;;;;;4994069;28;20671;-76
2023/08/06 02:34:02;;;;;;;10.13;9.20;;;13.10;99.90;;;;;;4995501;28;20625;-76
2023/08/06 02:36:29;;;;;;;10.60;9.90;;;13.00;99.90;;;;;;4993320;28;20240;-76
2023/08/06 02:38:56;;;;;;;10.80;10.10;;;13.00;99.90;;;;;;4996362;28;20268;-76
2023/08/06 02:41:23;;;;;;;10.43;9.73;;;13.00;99.90;;;;;;4975107;28;20223;-76
2023/08/06 02:43:50;;;;;;;10.90;10.20;;;13.00;99.90;;;;;;4999111;28;20685;-76
2023/08/06 02:46:18;;;;;;;10.80;10.10;;;13.00;99.90;;;;;;4991614;28;20205;-76
2023/08/06 02:48:45;;;;;;;11.07;10.27;;;13.00;99.90;;;;;;4990039;28;20307;-76
2023/08/06 02:51:13;;;;;;;10.63;9.93;;;13.00;99.90;;;;;;4979965;28;20201;-76
2023/08/06 02:53:40;;;;;;;11.37;10.57;;;13.10;99.90;;;;;;4975195;28;20632;-76
2023/08/06 02:56:10;;;;;;;10.93;10.23;;;13.10;99.90;;;;;;4975267;28;20276;-76
2023/08/06 02:58:49;;;;;;;11.20;10.40;;;13.10;99.90;;;;;;4975847;28;20216;-76
2023/08/06 03:01:36;;;;;;;11.53;10.63;;;13.10;99.90;;;;;;4974856;28;20285;-76
2023/08/06 03:04:08;;;;;;;11.17;10.40;;;13.20;99.90;;;;;;4974835;28;20221;-76
2023/08/06 03:06:40;;;;;;;10.97;10.27;;;13.30;99.90;;;;;;4986425;28;20664;-76
2023/08/06 03:09:07;;;;;;;10.67;10.00;;;13.30;99.90;;;;;;4993596;28;20642;-77
2023/08/06 03:11:34;;;;;;;10.77;10.07;;;13.40;99.90;;;;;;4984652;28;20296;-75
2023/08/06 03:14:06;;;;;;;10.57;9.97;;;13.50;99.90;;;;;;4993656;28;20328;-75
2023/08/06 03:16:35;;;;;;;10.20;9.60;;;13.50;99.90;;;;;;4993061;28;20206;-76
2023/08/06 03:19:02;;;;;;;10.43;9.73;;;13.50;99.90;;;;;;4991371;28;20223;-79
2023/08/06 03:21:29;;;;;;;10.07;9.47;;;13.50;99.90;;;;;;5000400;28;20268;-79
2023/08/06 03:23:55;;;;;;;9.90;9.27;;;13.40;99.90;;;;;;4997349;28;20221;-79
2023/08/06 03:26:25;;;;;;;9.93;9.33;;;13.50;99.90;;;;;;4987095;28;20670;-78
2023/08/06 03:28:52;;;;;;;10.00;9.40;;;13.50;99.90;;;;;;4981441;28;20225;-79
2023/08/06 03:31:20;;;;;;;9.30;8.70;;;13.50;99.90;;;;;;4978583;28;20195;-78
2023/08/06 03:33:48;;;;;;;9.90;9.30;;;13.50;99.90;;;;;;5001118;28;20325;-79
2023/08/06 03:36:17;;;;;;;9.60;9.10;;;13.50;99.90;;;;;;4989496;28;20238;-79
2023/08/06 03:38:44;;;;;;;9.87;9.23;;;13.60;99.90;;;;;;4979418;28;20308;-78
2023/08/06 03:41:13;;;;;;;9.83;9.23;;;13.60;99.90;;;;;;4991079;28;20730;-79
2023/08/06 03:43:40;;;;;;;9.90;9.30;;;13.70;99.90;;;;;;4985270;28;20211;-78
2023/08/06 03:46:12;;;;;;;10.10;9.50;;;13.70;99.90;;;;;;4998652;28;20208;-79
2023/08/06 03:48:39;;;;;;;10.37;9.77;;;13.70;99.90;;;;;;4994105;28;20219;-79
2023/08/06 03:51:07;;;;;;;9.70;9.10;;;13.80;99.90;;;;;;4991320;28;20216;-79
2023/08/06 03:53:34;;;;;;;10.90;10.10;;;13.80;99.90;;;;;;4993862;28;20217;-78
2023/08/06 03:56:01;;;;;;;11.20;10.50;;;13.80;99.90;;;;;;4994471;28;20198;-79
2023/08/06 03:58:30;;;;;;;10.27;9.57;;;13.80;99.90;;;;;;4994805;28;20589;-78
2023/08/06 04:01:00;;;;;;;10.30;9.70;;;13.90;99.90;;;;;;4991656;28;20651;-78
2023/08/06 04:03:30;;;;;;;10.10;9.40;;;13.90;99.90;;;;;;4988079;28;20218;-79
2023/08/06 04:05:57;;;;;;;9.93;9.33;;;13.90;99.90;;;;;;4990255;28;20201;-78
2023/08/06 04:08:25;;;;;;;9.67;9.07;;;14.00;99.90;;;;;;4992080;28;20228;-78
2023/08/06 04:10:53;;;;;;;9.97;9.37;;;14.10;99.90;;;;;;4988256;28;20196;-79
2023/08/06 04:13:20;;;;;;;9.77;9.17;;;14.20;99.90;;;;;;4988892;28;20205;-83
2023/08/06 04:15:48;;;;;;;10.30;9.50;;;14.30;99.90;;;;;;4993474;28;20230;-78
2023/08/06 04:18:15;;;;;;;10.63;9.93;;;14.20;99.90;;;;;;4985825;28;20302;-78
2023/08/06 04:20:45;;;;;;;10.30;9.70;;;14.20;99.90;;;;;;4989352;28;20231;-79
2023/08/06 04:23:12;;;;;;;10.03;9.20;;;14.30;99.90;;;;;;4974904;28;20208;-82
2023/08/06 04:25:43;;;;;;;10.57;9.67;;;14.20;99.90;;;;;;4991001;28;20271;-79
2023/08/06 04:28:10;;;;;;;9.70;9.10;;;14.20;99.90;;;;;;4984659;28;20215;-80
2023/08/06 04:30:38;;;;;;;10.20;9.60;;;14.20;99.90;;;;;;4995105;28;20678;-80
2023/08/06 04:33:05;;;;;;;10.50;9.80;;;14.30;99.90;;;;;;4984016;28;20210;-81
2023/08/06 04:35:33;;;;;;;10.47;9.77;;;14.30;99.90;;;;;;4983401;28;20289;-80
2023/08/06 04:38:01;;;;;;;10.80;10.00;;;14.30;99.90;;;;;;4986408;28;20226;-80
2023/08/06 04:40:28;;;;;;;11.03;10.33;;;14.30;99.90;;;;;;4987851;28;20198;-79
2023/08/06 04:42:56;;;;;;;11.10;10.40;;;14.30;99.90;;;;;;4981593;28;20201;-80
2023/08/06 04:45:24;;;;;;;11.00;10.10;;;14.30;99.90;;;;;;4984529;28;20647;-80
2023/08/06 04:47:51;;;;;;;11.70;11.00;;;14.30;99.90;;;;;;4985477;28;20197;-80
2023/08/06 04:50:18;;;;;;;11.50;10.70;;;14.30;99.90;;;;;;4988204;28;20234;-81
2023/08/06 04:52:44;;;;;;;10.80;10.20;;;14.30;99.90;;;;;;4994513;28;20194;-82
2023/08/06 04:55:11;;;;;;;11.40;10.60;;;14.30;99.90;;;;;;4996815;28;20200;-81
2023/08/06 04:57:38;;;;;;;11.30;10.60;;;14.20;99.90;;;;;;4989821;28;20202;-81
2023/08/06 05:00:08;;;;;;;11.37;10.57;;;14.30;99.90;;;;;;4991629;28;20221;-81
2023/08/06 05:02:37;;;;;;;11.43;10.73;;;14.30;99.90;;;;;;4983789;28;20626;-80
2023/08/06 05:05:05;;;;;;;11.30;10.53;;;14.40;99.90;;;;;;4980342;28;20231;-80
2023/08/06 05:07:32;;;;;;;11.07;10.37;;;14.40;99.90;;;;;;4989885;28;20232;-80
2023/08/06 05:09:58;;;;;;;11.20;10.57;;;14.50;99.90;;;;;;4991549;28;20222;-80
2023/08/06 05:12:25;;;;;;;10.70;10.10;;;14.50;99.90;;;;;;4990693;28;20714;-79
2023/08/06 05:14:52;;;;;;;11.80;11.03;;;14.60;99.90;;;;;;4987539;28;20291;-81
2023/08/06 05:17:22;;;;;;;10.67;9.97;;;14.60;99.90;;;;;;4993572;28;20206;-82
2023/08/06 05:19:49;;;;;;;10.90;10.30;;;14.80;99.90;;;;;;4993678;28;20660;-81
2023/08/06 05:22:16;;;;;;;10.73;9.93;;;15.00;99.90;;;;;;4992740;28;20205;-81
2023/08/06 05:24:43;;;;;;;9.90;9.20;;;15.30;99.90;;;;;;4988810;28;20226;-80
2023/08/06 05:27:09;;;;;;;10.00;9.40;;;15.50;99.90;;;;;;4984609;28;20250;-80
2023/08/06 05:29:36;;;;;;;10.00;9.40;;;15.60;99.90;;;;;;4988706;28;20229;-79
2023/08/06 05:32:03;;;;;;;10.57;9.77;;;15.60;99.90;;;;;;4982976;28;20204;-80
2023/08/06 05:34:32;;;;;;;9.53;8.83;;;15.70;99.90;;;;;;4989950;28;20202;-79
2023/08/06 05:36:58;;;;;;;9.40;8.80;;;16.00;99.90;;;;;;4993560;28;20195;-82
2023/08/06 05:39:27;;;;;;;9.80;9.20;;;16.40;99.90;;;;;;4984920;28;20227;-81
2023/08/06 05:41:55;;;;;;;9.73;8.83;;;16.60;99.90;;;;;;4979744;28;20724;-81
2023/08/06 05:44:21;;;;;;;9.40;8.80;;;16.60;99.90;;;;;;4992820;28;20229;-81
2023/08/06 05:46:50;;;;;;;10.20;9.50;;;16.50;99.90;;;;;;4986934;28;20284;-79
2023/08/06 05:49:16;;;;;;;9.90;9.30;;;16.40;99.90;;;;;;4991728;28;20228;-79
2023/08/06 05:51:44;;;;;;;10.00;9.40;;;16.30;99.90;;;;;;4987614;28;20265;-80
2023/08/06 05:54:11;;;;;;;9.50;8.90;;;16.30;99.90;;;;;;4996540;28;20212;-79
2023/08/06 05:56:38;;;;;;;9.60;9.00;;;16.40;99.90;;;;;;4990066;28;20614;-79
2023/08/06 05:59:05;;;;;;;9.70;9.00;;;16.40;99.90;;;;;;4978829;28;20225;-79
2023/08/06 06:01:32;;;;;;;9.10;8.50;;;16.40;99.90;;;;;;4983094;28;20198;-79
2023/08/06 06:03:58;;;;;;;9.43;8.90;;;16.30;99.90;;;;;;4993547;28;20268;-80
2023/08/06 06:06:25;;;;;;;9.13;8.50;;;16.20;99.90;;;;;;4996683;28;20556;-79
2023/08/06 06:08:53;;;;;;;9.27;8.67;;;16.10;99.90;;;;;;4979440;28;20231;-81
2023/08/06 06:11:21;;;;;;;9.40;8.80;;;16.00;99.90;;;;;;4992669;28;20199;-81
2023/08/06 06:13:49;;;;;;;8.57;8.13;;;15.90;99.90;;;;;;4986535;28;20211;-81
2023/08/06 06:16:16;;;;;;;9.40;8.80;;;15.90;99.90;;;;;;4989928;28;20209;-82
2023/08/06 06:18:42;;;;;;;9.03;8.53;;;16.00;99.90;;;;;;4979002;28;20226;-82
2023/08/06 06:21:10;;;;;;;9.43;8.70;;;16.10;99.90;;;;;;4976745;28;20584;-82
2023/08/06 06:23:37;;;;;;;9.00;8.50;;;16.20;99.90;;;;;;4995691;28;20209;-82
2023/08/06 06:26:05;;;;;;;8.63;8.13;;;16.20;99.90;;;;;;4994057;28;20201;-82
2023/08/06 06:28:32;;;;;;;8.90;8.40;;;16.40;99.90;;;;;;4979831;28;20222;-81
2023/08/06 06:31:01;;;;;;;7.83;7.30;;;16.60;99.90;;;;;;4985116;28;20208;-81
2023/08/06 06:33:28;;;;;;;7.57;7.07;;;16.90;99.90;;;;;;4986394;28;20209;-81
2023/08/06 06:35:54;;;;;;;9.27;8.77;;;17.00;99.90;;;;;;4978475;28;20194;-82
2023/08/06 06:38:21;;;;;;;7.93;7.50;;;17.00;99.90;;;;;;4989130;28;20217;-82
2023/08/06 06:40:54;;;;;;;8.23;7.70;;;17.00;99.90;;;;;;4985383;28;20202;-82
2023/08/06 06:43:23;;;;;;;8.20;7.80;;;16.80;99.90;;;;;;4979893;28;20193;-82
2023/08/06 06:45:53;;;;;;;8.00;7.50;;;16.70;99.90;;;;;;4991065;28;20228;-81
2023/08/06 06:48:20;;;;;;;7.73;7.23;;;16.60;99.90;;;;;;4977869;28;20239;-83
2023/08/06 06:50:48;;;;;;;7.77;7.37;;;16.60;99.90;;;;;;4986397;28;20277;-83
2023/08/06 06:53:17;;;;;;;7.80;7.30;;;16.60;99.90;;;;;;4988963;28;20209;-80
2023/08/06 06:55:44;;;;;;;8.10;7.60;;;16.60;99.90;;;;;;4990291;28;20205;-80
2023/08/06 06:58:11;;;;;;;8.47;7.90;;;16.60;99.90;;;;;;4980790;28;20233;-80
2023/08/06 07:00:39;;;;;;;8.40;7.90;;;16.50;99.90;;;;;;4982024;28;20205;-80
2023/08/06 07:03:06;;;;;;;2.20;2.10;;;16.50;99.90;;;;;;4982347;28;20213;-80
2023/08/06 07:05:33;;;;;;;2.30;2.20;;;16.50;99.90;;;;;;4995893;28;20624;-80
2023/08/06 07:08:00;;;;;;;2.50;2.30;;;16.50;99.90;;;;;;4993284;28;20210;-80
2023/08/06 07:10:27;;;;;;;2.17;2.07;;;16.50;99.90;;;;;;4979418;28;20274;-79
2023/08/06 07:12:54;;;;;;;2.80;2.20;;;16.60;99.90;;;;;;4982008;28;20206;-80
2023/08/06 07:15:21;;;;;;;2.10;2.00;;;16.80;99.90;;;;;;4989754;28;20204;-80
2023/08/06 07:17:49;;;;;;;6.13;5.83;;;17.10;99.90;;;;;;4994291;28;20271;-79
2023/08/06 07:20:16;;;;;;;3.70;3.50;;;17.30;99.90;;;;;;4997776;28;20724;-79
2023/08/06 07:22:43;;;;;;;5.70;5.40;;;17.50;99.90;;;;;;5006183;28;20225;-80
2023/08/06 07:25:12;;;;;;;3.57;2.40;;;17.60;99.90;;;;;;4992242;28;20217;-85
2023/08/06 07:27:39;;;;;;;6.57;6.17;;;17.70;99.90;;;;;;4978070;28;20210;-79
2023/08/06 07:30:07;;;;;;;6.80;6.50;;;17.40;99.90;;;;;;4980797;28;20218;-83
2023/08/06 07:32:34;;;;;;;6.50;6.10;;;17.20;99.90;;;;;;4994357;28;20211;-81
2023/08/06 07:35:02;;;;;;;5.70;5.40;;;16.90;99.90;;;;;;4984963;28;20202;-80
2023/08/06 07:37:29;;;;;;;7.50;7.00;;;16.70;99.90;;;;;;4994277;28;20201;-76
2023/08/06 07:39:56;;;;;;;8.27;7.77;;;16.60;99.90;;;;;;4997001;28;20224;-77
2023/08/06 07:42:23;;;;;;;8.40;7.90;;;16.40;99.90;;;;;;4975688;28;20228;-77
2023/08/06 07:44:52;;;;;;;8.27;7.67;;;16.30;99.90;;;;;;4975610;28;20245;-77
2023/08/06 07:47:19;;;;;;;4.13;3.93;;;16.10;99.90;;;;;;4975755;28;20679;-76
2023/08/06 07:49:46;;;;;;;3.67;3.53;;;16.10;99.90;;;;;;4979691;28;20210;-76
2023/08/06 07:52:14;;;;;;;8.53;8.03;;;16.00;99.90;;;;;;4985695;28;20687;-76
2023/08/06 07:54:41;;;;;;;8.80;8.30;;;16.10;99.90;;;;;;4983596;28;20251;-76
2023/08/06 07:57:08;;;;;;;8.40;7.90;;;16.10;99.90;;;;;;4979503;28;20204;-77
2023/08/06 07:59:35;;;;;;;8.37;7.97;;;16.10;99.90;;;;;;4987405;28;20237;-77
2023/08/06 08:02:02;;;;;;;8.10;7.70;;;16.10;99.90;;;;;;4995764;28;20221;-77
2023/08/06 08:04:28;;;;;;;8.83;8.03;;;16.10;99.90;;;;;;4981368;28;20217;-77
2023/08/06 08:06:55;;;;;;;8.13;7.63;;;16.20;99.90;;;;;;4983794;28;20567;-77
2023/08/06 08:09:23;;;;;;;8.57;8.07;;;16.10;99.90;;;;;;4983841;28;20672;-77
2023/08/06 08:11:52;;;;;;;8.63;8.13;;;16.20;99.90;;;;;;4980100;28;20201;-76
2023/08/06 08:14:19;;;;;;;9.50;9.00;;;16.20;99.90;;;;;;4977516;28;20268;-77
2023/08/06 08:16:45;;;;;;;8.40;7.90;;;16.30;99.90;;;;;;4984162;28;20201;-77
2023/08/06 08:19:12;;;;;;;7.63;7.23;;;16.40;99.90;;;;;;4979482;28;20725;-76
2023/08/06 08:21:39;;;;;;;9.30;8.80;;;16.50;99.90;;;;;;4988013;28;20263;-76
2023/08/06 08:24:06;;;;;;;8.60;8.10;;;16.40;99.90;;;;;;4979777;28;20229;-77
2023/08/06 08:26:34;;;;;;;8.03;7.63;;;16.40;99.90;;;;;;4981202;28;20217;-76
2023/08/06 08:29:01;;;;;;;8.07;7.67;;;16.40;99.90;;;;;;4984045;28;20574;-76
2023/08/06 08:31:28;;;;;;;8.30;7.80;;;16.20;99.90;;;;;;4982026;28;20200;-77
2023/08/06 08:33:55;;;;;;;8.50;8.10;;;16.20;99.90;;;;;;4979963;28;20202;-77
2023/08/06 08:36:22;;;;;;;8.43;7.93;;;16.30;99.90;;;;;;4987159;28;20196;-77
2023/08/06 08:38:49;;;;;;;8.17;7.77;;;16.50;99.90;;;;;;4990286;28;20217;-77
2023/08/06 08:41:17;;;;;;;8.30;7.90;;;16.60;99.90;;;;;;4998161;28;20203;-77
2023/08/06 08:43:45;;;;;;;8.30;7.90;;;16.70;99.90;;;;;;4989854;28;20642;-77
2023/08/06 08:46:14;;;;;;;8.83;8.33;;;16.80;99.90;;;;;;4998061;28;20217;-77
2023/08/06 08:48:41;;;;;;;8.83;8.33;;;16.80;99.90;;;;;;4983292;28;20217;-77
2023/08/06 08:51:08;;;;;;;1.90;1.90;;;16.80;99.90;;;;;;4979439;28;20200;-77
2023/08/06 08:53:39;;;;;;;2.10;2.00;;;17.00;99.90;;;;;;4976027;28;20197;-77
2023/08/06 08:56:06;;;;;;;7.77;7.37;;;17.20;99.90;;;;;;4977237;28;21351;-77
2023/08/06 08:58:33;;;;;;;6.40;6.10;;;17.20;99.90;;;;;;4981126;28;20210;-77
2023/08/06 09:01:03;;;;;;;8.10;7.70;;;17.30;99.90;;;;;;4985678;28;20190;-77
2023/08/06 09:03:30;;;;;;;6.67;6.37;;;17.30;99.90;;;;;;4974632;28;20229;-78
2023/08/06 09:05:59;;;;;;;7.67;7.27;;;17.20;99.90;;;;;;4983233;28;20221;-77
2023/08/06 09:08:32;;;;;;;6.10;5.80;;;17.10;99.90;;;;;;4983008;28;20237;-77
2023/08/06 09:11:01;;;;;;;5.80;5.50;;;17.00;99.90;;;;;;4982509;28;20263;-77
2023/08/06 09:13:28;;;;;;;6.57;6.27;;;17.00;99.90;;;;;;4988224;28;20630;-77
2023/08/06 09:15:55;;;;;;;7.30;6.90;;;16.90;99.90;;;;;;4985085;28;20202;-77
2023/08/06 09:18:28;;;;;;;6.60;6.30;;;16.90;99.90;;;;;;4973843;28;20677;-77
2023/08/06 09:20:55;;;;;;;6.80;6.50;;;17.00;99.90;;;;;;4989091;28;20296;-77
2023/08/06 09:23:27;;;;;;;6.90;6.60;;;17.10;99.90;;;;;;4975195;28;20199;-77
2023/08/06 09:25:54;;;;;;;5.77;5.47;;;17.20;99.90;;;;;;4982661;28;20215;-77
2023/08/06 09:28:21;;;;;;;5.00;4.70;;;17.60;99.90;;;;;;4993623;28;20663;-78
2023/08/06 09:30:49;;;;;;;5.57;5.27;;;18.00;99.90;;;;;;4993066;28;20202;-78
2023/08/06 09:33:19;;;;;;;4.70;4.50;;;18.50;99.90;;;;;;4983901;28;20196;-77
2023/08/06 09:35:48;;;;;;;4.23;4.03;;;18.60;99.90;;;;;;4990600;28;20310;-77
2023/08/06 09:38:15;;;;;;;4.30;4.10;;;18.70;99.90;;;;;;4980329;28;20196;-76
2023/08/06 09:40:42;;;;;;;5.63;5.00;;;18.60;99.90;;;;;;4983603;28;20198;-77
2023/08/06 09:43:08;;;;;;;5.10;4.90;;;18.90;99.90;;;;;;4979781;28;20212;-77
2023/08/06 09:45:37;;;;;;;5.60;5.40;;;18.90;99.90;;;;;;4981071;28;20712;-77
2023/08/06 09:48:05;;;;;;;4.73;4.50;;;18.80;99.90;;;;;;4995254;28;20210;-78
2023/08/06 09:50:33;;;;;;;5.40;5.20;;;18.70;99.90;;;;;;4996591;28;20232;-77
2023/08/06 09:53:02;;;;;;;5.93;5.63;;;18.50;99.90;;;;;;4992869;28;20219;-78
2023/08/06 09:55:28;;;;;;;1.90;1.80;;;18.30;99.90;;;;;;4979059;28;20212;-77
2023/08/06 09:57:56;;;;;;;2.10;2.00;;;18.00;99.90;;;;;;4979930;28;20656;-78
2023/08/06 10:00:23;;;;;;;5.87;5.47;;;17.80;99.90;;;;;;4999093;28;20230;-77
2023/08/06 10:02:54;;;;;;;7.60;7.20;;;17.90;99.90;;;;;;4997079;28;20207;-78
2023/08/06 10:05:22;;;;;;;6.80;6.50;;;17.90;99.90;;;;;;4990974;28;20889;-77
2023/08/06 10:07:50;;;;;;;6.57;6.27;;;18.10;99.90;;;;;;4982382;28;20200;-77
2023/08/06 10:10:19;;;;;;;6.70;6.40;;;18.20;99.90;;;;;;4991597;28;20715;-77
2023/08/06 10:12:49;;;;;;;8.13;7.60;;;18.00;99.90;;;;;;4993044;28;20192;-77
2023/08/06 10:15:21;;;;;;;6.90;6.50;;;17.70;99.90;;;;;;4984473;28;20194;-77
2023/08/06 10:17:52;;;;;;;6.80;6.50;;;17.40;99.90;;;;;;4991462;28;20278;-76
2023/08/06 10:20:20;;;;;;;7.20;6.80;;;17.10;99.90;;;;;;4981166;28;20809;-77
2023/08/06 10:23:00;;;;;;;7.97;7.57;;;16.80;99.90;;;;;;4992636;28;20252;-77
2023/08/06 10:25:32;;;;;;;8.40;8.00;;;16.60;99.90;;;;;;4988448;28;20694;-77
2023/08/06 10:27:59;;;;;;;8.10;7.70;;;16.50;99.90;;;;;;4981586;28;20290;-77
2023/08/06 10:30:28;;;;;;;7.83;7.43;;;16.60;99.90;;;;;;4973517;28;20609;-76
2023/08/06 10:32:57;;;;;;;7.60;7.20;;;16.70;99.90;;;;;;4985385;28;20664;-77
2023/08/06 10:35:37;;;;;;;7.70;7.30;;;16.80;99.90;;;;;;4984907;28;20330;-77
2023/08/06 10:38:10;;;;;;;7.53;7.13;;;17.10;99.90;;;;;;4984821;28;20269;-77
2023/08/06 10:40:40;;;;;;;7.00;6.70;;;17.20;99.90;;;;;;4977069;28;20281;-77
2023/08/06 10:43:10;;;;;;;7.30;6.80;;;17.30;99.90;;;;;;4989363;28;20220;-77
2023/08/06 10:45:38;;;;;;;7.90;7.50;;;17.30;99.90;;;;;;4977255;28;20215;-77
2023/08/06 10:48:05;;;;;;;7.50;7.10;;;17.40;99.90;;;;;;4992509;28;20262;-77
2023/08/06 10:50:32;;;;;;;7.40;7.00;;;17.40;99.90;;;;;;4993446;28;20247;-77
2023/08/06 10:53:05;;;;;;;7.50;7.10;;;17.40;99.90;;;;;;4980634;28;20202;-77
2023/08/06 10:55:32;;;;;;;7.60;7.20;;;17.30;99.90;;;;;;4975756;28;20198;-77
2023/08/06 10:58:00;;;;;;;7.70;7.30;;;17.40;99.90;;;;;;4991769;28;20675;-77
2023/08/06 11:00:27;;;;;;;8.00;7.50;;;17.30;99.90;;;;;;4983961;28;20210;-77
2023/08/06 11:02:54;;;;;;;7.60;7.20;;;17.30;99.90;;;;;;4987766;28;20224;-77
2023/08/06 11:05:21;;;;;;;7.10;6.70;;;17.30;99.90;;;;;;4994795;28;20202;-76
2023/08/06 11:07:49;;;;;;;7.20;6.90;;;17.50;99.90;;;;;;4999281;28;20649;-77
2023/08/06 11:10:16;;;;;;;7.10;6.80;;;17.70;99.90;;;;;;4994168;28;20231;-77
2023/08/06 11:12:43;;;;;;;7.50;7.10;;;17.90;99.90;;;;;;4982112;28;20190;-77
2023/08/06 11:15:12;;;;;;;7.90;7.40;;;18.00;99.90;;;;;;4984693;28;20238;-77
2023/08/06 11:17:41;;;;;;;7.73;7.23;;;17.90;99.90;;;;;;4995707;28;20199;-77
2023/08/06 11:20:08;;;;;;;7.60;7.20;;;17.60;99.90;;;;;;4982669;28;20223;-77
2023/08/06 11:22:37;;;;;;;7.43;7.03;;;17.40;99.90;;;;;;4982789;28;20210;-76
2023/08/06 11:25:04;;;;;;;7.50;7.00;;;17.30;99.90;;;;;;4978404;28;20290;-76
2023/08/06 11:27:31;;;;;;;7.90;7.50;;;17.00;99.90;;;;;;4983913;28;20229;-76
2023/08/06 11:29:57;;;;;;;7.60;7.20;;;17.10;99.90;;;;;;4992639;28;20217;-77
2023/08/06 11:32:27;;;;;;;6.43;6.03;;;17.10;99.90;;;;;;4978531;28;20576;-76
2023/08/06 11:34:55;;;;;;;1.83;1.70;;;17.00;99.90;;;;;;4978851;28;20198;-76
2023/08/06 11:37:24;;;;;;;1.80;1.70;;;17.00;99.90;;;;;;4976028;28;20277;-76
2023/08/06 11:39:51;;;;;;;1.80;1.70;;;16.80;99.90;;;;;;4978797;28;20224;-77
2023/08/06 11:42:17;;;;;;;1.83;1.70;;;16.90;99.90;;;;;;4973931;28;20195;-77
2023/08/06 11:44:45;;;;;;;1.80;1.70;;;16.80;99.90;;;;;;4982250;28;20198;-76
2023/08/06 11:47:14;;;;;;;2.80;2.70;;;16.80;99.90;;;;;;4980380;28;20313;-76
2023/08/06 11:49:47;;;;;;;4.13;3.93;;;16.80;99.90;;;;;;4981773;28;20237;-77
2023/08/06 11:52:18;;;;;;;2.00;1.80;;;16.80;99.90;;;;;;4981031;28;20201;-76
2023/08/06 11:54:45;;;;;;;1.93;1.83;;;17.10;99.90;;;;;;4985554;28;20682;-77
2023/08/06 11:57:12;;;;;;;2.10;1.80;;;17.40;99.90;;;;;;4989903;28;20288;-76
2023/08/06 11:59:40;;;;;;;2.00;1.90;;;17.60;99.90;;;;;;4995103;28;20731;-77
2023/08/06 12:02:10;;;;;;;1.70;1.70;;;17.80;99.90;;;;;;4991403;28;20204;-77
2023/08/06 12:05:00;;;;;;;1.73;1.70;;;17.80;99.90;;;;;;4999887;28;20196;-76
2023/08/06 12:07:28;;;;;;;1.90;1.80;;;17.90;99.90;;;;;;4991720;28;20321;-77
2023/08/06 12:09:55;;;;;;;1.60;1.60;;;17.80;99.90;;;;;;4978048;28;20286;-77
2023/08/06 12:12:21;;;;;;;1.80;1.70;;;17.90;99.90;;;;;;4981222;28;20199;-76
2023/08/06 12:14:48;;;;;;;1.60;1.60;;;17.80;99.90;;;;;;4980303;28;20268;-77
2023/08/06 12:17:15;;;;;;;1.90;1.80;;;17.80;99.90;;;;;;4976492;28;20196;-77
2023/08/06 12:19:42;;;;;;;1.83;1.73;;;17.90;99.90;;;;;;4972612;28;20234;-76
2023/08/06 12:22:10;;;;;;;1.87;1.77;;;17.80;99.90;;;;;;4981451;28;20211;-77
2023/08/06 12:24:37;;;;;;;2.00;1.80;;;17.70;99.90;;;;;;4977719;28;20643;-77
2023/08/06 12:27:04;;;;;;;1.70;1.70;;;17.60;99.90;;;;;;4997772;28;20211;-77
2023/08/06 12:29:31;;;;;;;1.90;1.80;;;17.40;99.90;;;;;;4972100;28;20231;-77
2023/08/06 12:31:58;;;;;;;2.00;1.90;;;17.40;99.90;;;;;;4977885;28;20190;-77
2023/08/06 12:34:24;;;;;;;1.97;1.87;;;17.40;99.90;;;;;;4978812;28;20203;-76
2023/08/06 12:36:51;;;;;;;2.00;1.90;;;17.40;99.90;;;;;;4995479;28;20567;-82
2023/08/06 12:39:19;;;;;;;2.53;2.10;;;17.40;99.90;;;;;;4988943;28;20234;-80
2023/08/06 12:41:46;;;;;;;2.00;1.90;;;17.40;99.90;;;;;;4987158;28;20242;-79
2023/08/06 12:44:13;;;;;;;2.10;2.00;;;17.30;99.90;;;;;;4992047;28;20607;-80